Brejo da Madre de Deus, Brazil
Current Conditions -  °F | °C
As of 6:00 PM on Friday 31 Oct 2014 (Local Time) from SBKG Reporting Station
Clear Clear  
Wind Chill: 75°   Ceiling: Unl
Heat Index: 75°   Visibility: 6mi
Dew Point: 64°   Wind: 14mph
Humidity: 69%   Direction: 120°ESE
Pressure: 30"   Gusts: NA
Location:  8.15°S, 36.37°W
Report Text: SBKG 312100Z 12012KT CAVOK 24/18 Q1016
Loading
Personal Weather Stations






























Interactive Weather Map
Tropical Storm Tracking
New forecast layout! Learn more

10-Day Weather Forecast

Advertisements
Track Severe Weather on mobile